Time;durP1;ratioP1;P1;durP2;ratioP2;P2;SDS_P1;SDS_P2;PMS_P1;PMS_P2;Temp;Humidity;BMP_temperature;BMP_pressure;BME280_temperature;BME280_humidity;BME280_pressure;Samples;Min_cycle;Max_cycle;Signal;HPM_P1;HPM_P2
2022/10/03 00:00:17;;;;;;;5.30;4.80;;;12.50;99.90;;;;;;5096922;28;20407;-44
2022/10/03 00:03:28;;;;;;;5.13;4.43;;;12.50;99.90;;;;;;5096077;28;20442;-46
2022/10/03 00:06:05;;;;;;;4.90;4.20;;;12.50;99.90;;;;;;5097269;28;20506;-46
2022/10/03 00:08:55;;;;;;;4.67;4.27;;;12.50;99.90;;;;;;5096123;28;20458;-44
2022/10/03 00:11:35;;;;;;;4.73;4.33;;;12.50;99.90;;;;;;5096065;28;20484;-47
2022/10/03 00:14:19;;;;;;;4.30;3.90;;;12.50;99.90;;;;;;5095555;28;20414;-47
2022/10/03 00:17:02;;;;;;;4.80;4.30;;;12.40;99.90;;;;;;5095745;28;20423;-47
2022/10/03 00:19:45;;;;;;;5.00;4.50;;;12.40;99.90;;;;;;5093379;28;20657;-45
2022/10/03 00:22:25;;;;;;;3.80;3.50;;;12.40;99.90;;;;;;5094694;28;20458;-44
2022/10/03 00:25:24;;;;;;;3.63;3.30;;;12.40;99.90;;;;;;5092744;28;20444;-45
2022/10/03 00:28:02;;;;;;;4.63;3.90;;;12.40;99.90;;;;;;5077746;28;20439;-46
2022/10/03 00:30:29;;;;;;;4.10;3.13;;;12.40;99.90;;;;;;5095833;28;20419;-44
2022/10/03 00:33:31;;;;;;;3.80;3.50;;;12.50;99.90;;;;;;5093393;28;20422;-46
2022/10/03 00:36:06;;;;;;;4.13;3.43;;;12.50;99.90;;;;;;5094788;28;20937;-44
2022/10/03 00:38:49;;;;;;;4.00;3.70;;;12.50;99.90;;;;;;5094042;28;20824;-44
2022/10/03 00:41:33;;;;;;;4.00;3.50;;;12.50;99.90;;;;;;5093246;28;20848;-44
2022/10/03 00:44:42;;;;;;;3.87;3.47;;;12.50;99.90;;;;;;5095994;28;20417;-46
2022/10/03 00:47:39;;;;;;;4.13;3.73;;;12.50;99.90;;;;;;5096226;28;20437;-43
2022/10/03 00:50:26;;;;;;;5.67;5.07;;;12.50;99.90;;;;;;5095692;28;20462;-46
2022/10/03 00:53:20;;;;;;;4.87;4.47;;;12.50;99.90;;;;;;5095570;28;20697;-43
2022/10/03 00:55:56;;;;;;;5.37;4.87;;;12.50;99.90;;;;;;5095121;28;20479;-46
2022/10/03 00:58:53;;;;;;;5.10;4.60;;;12.50;99.90;;;;;;5094689;28;20466;-45
2022/10/03 01:01:41;;;;;;;4.90;4.40;;;12.50;99.90;;;;;;5095871;28;20463;-46
2022/10/03 01:04:33;;;;;;;5.60;5.07;;;12.40;99.90;;;;;;5097072;28;20409;-45
2022/10/03 01:07:37;;;;;;;5.00;4.50;;;12.40;99.90;;;;;;5098047;28;20423;-45
2022/10/03 01:10:13;;;;;;;5.10;4.60;;;12.40;99.90;;;;;;5098303;28;20407;-45
2022/10/03 01:12:56;;;;;;;5.97;5.27;;;12.40;99.90;;;;;;5098032;28;20773;-45
2022/10/03 01:15:50;;;;;;;4.90;4.47;;;12.40;99.90;;;;;;5097401;28;20440;-45
2022/10/03 01:18:36;;;;;;;4.80;4.30;;;12.40;99.90;;;;;;5098359;28;20543;-44
2022/10/03 01:21:47;;;;;;;4.87;4.37;;;12.40;99.90;;;;;;5096426;28;20432;-44
2022/10/03 01:24:33;;;;;;;4.43;4.03;;;12.40;99.90;;;;;;5038927;28;20692;-44
2022/10/03 01:27:04;;;;;;;5.57;4.83;;;12.40;99.90;;;;;;5054067;28;20409;-44
2022/10/03 01:32:40;;;;;;;5.47;4.30;;;12.40;99.90;;;;;;5088694;28;20521;-44
2022/10/03 01:35:18;;;;;;;4.80;4.20;;;12.40;99.90;;;;;;5093092;28;20419;-47
2022/10/03 01:38:23;;;;;;;5.03;4.60;;;12.40;99.90;;;;;;5078059;28;20467;-46
2022/10/03 01:41:05;;;;;;;5.70;4.40;;;12.40;99.90;;;;;;5075083;28;20522;-45
2022/10/03 01:43:44;;;;;;;4.70;4.30;;;12.40;99.90;;;;;;5079632;28;20421;-44
2022/10/03 01:46:45;;;;;;;4.70;4.23;;;12.40;99.90;;;;;;5061274;28;20453;-44
2022/10/03 01:49:21;;;;;;;4.87;4.27;;;12.40;99.90;;;;;;5071278;28;20427;-44
2022/10/03 01:51:59;;;;;;;4.40;4.00;;;12.40;99.90;;;;;;5079656;28;20455;-45
2022/10/03 01:54:33;;;;;;;4.87;4.47;;;12.30;99.90;;;;;;5080932;28;20806;-43
2022/10/03 01:57:09;;;;;;;4.10;3.70;;;12.30;99.90;;;;;;5079162;28;20780;-45
2022/10/03 01:59:57;;;;;;;5.33;4.90;;;12.30;99.90;;;;;;5081378;28;20426;-46
2022/10/03 02:02:34;;;;;;;4.03;3.63;;;12.20;99.90;;;;;;5080534;28;20428;-44
2022/10/03 02:05:11;;;;;;;4.47;4.07;;;12.20;99.90;;;;;;5081034;28;20427;-46
2022/10/03 02:07:58;;;;;;;5.17;4.30;;;12.10;99.90;;;;;;5081767;28;20689;-44
2022/10/03 02:10:34;;;;;;;4.57;3.83;;;12.10;99.90;;;;;;5080130;28;20542;-47
2022/10/03 02:13:23;;;;;;;4.67;4.23;;;12.10;99.90;;;;;;5081414;28;20419;-46
2022/10/03 02:16:14;;;;;;;3.80;3.50;;;12.00;99.90;;;;;;5063478;28;20446;-48
2022/10/03 02:18:50;;;;;;;4.30;3.90;;;12.00;99.90;;;;;;5080745;28;20478;-45
2022/10/03 02:21:26;;;;;;;4.40;3.50;;;12.00;99.90;;;;;;5079465;28;20864;-47
2022/10/03 02:24:19;;;;;;;4.67;4.13;;;12.00;99.90;;;;;;5081467;28;20693;-45
2022/10/03 02:27:05;;;;;;;4.13;3.73;;;12.00;99.90;;;;;;5080563;28;20825;-47
2022/10/03 02:30:03;;;;;;;4.47;4.00;;;12.00;99.90;;;;;;5080727;28;20430;-48
2022/10/03 02:32:50;;;;;;;4.57;4.17;;;12.00;99.90;;;;;;5079684;28;20777;-46
2022/10/03 02:35:53;;;;;;;3.77;3.47;;;12.00;99.90;;;;;;5080865;28;20818;-43
2022/10/03 02:38:38;;;;;;;4.67;3.53;;;12.00;99.90;;;;;;5080660;28;20768;-46
2022/10/03 02:41:37;;;;;;;4.00;3.60;;;12.00;99.90;;;;;;5080277;28;20533;-47
2022/10/03 02:44:16;;;;;;;5.10;3.77;;;12.00;99.90;;;;;;5079548;28;20446;-43
2022/10/03 02:46:41;;;;;;;4.80;4.13;;;12.00;99.90;;;;;;5079683;28;20470;-44
2022/10/03 02:49:22;;;;;;;4.40;3.90;;;12.00;99.90;;;;;;5090628;28;20697;-44
2022/10/03 02:52:26;;;;;;;5.00;4.10;;;12.10;99.90;;;;;;5099121;28;20203;-43
2022/10/03 02:55:19;;;;;;;3.70;3.40;;;12.00;99.90;;;;;;5100067;28;20475;-43
2022/10/03 02:58:05;;;;;;;4.37;3.90;;;12.00;99.90;;;;;;5099805;28;20573;-46
2022/10/03 03:01:01;;;;;;;4.03;3.63;;;12.00;99.90;;;;;;5098744;28;20426;-46
2022/10/03 03:04:04;;;;;;;4.17;3.77;;;12.00;99.90;;;;;;5100344;28;20407;-55
2022/10/03 03:06:51;;;;;;;4.63;3.67;;;11.90;99.90;;;;;;5100468;28;20689;-45
2022/10/03 03:09:32;;;;;;;4.23;3.93;;;11.90;99.90;;;;;;5100296;28;20697;-44
2022/10/03 03:12:08;;;;;;;6.10;3.80;;;11.90;99.90;;;;;;5100029;28;20403;-44
2022/10/03 03:14:49;;;;;;;4.60;3.87;;;11.90;99.90;;;;;;5099508;28;20418;-44
2022/10/03 03:17:17;;;;;;;4.57;4.17;;;11.80;99.90;;;;;;5100047;28;20462;-45
2022/10/03 03:19:48;;;;;;;4.67;4.27;;;11.80;99.90;;;;;;5099837;28;20517;-44
2022/10/03 03:22:24;;;;;;;5.23;4.67;;;11.80;99.90;;;;;;5099659;28;20415;-43
2022/10/03 03:25:26;;;;;;;6.13;5.07;;;11.80;99.90;;;;;;5099364;28;20793;-43
2022/10/03 03:28:13;;;;;;;5.67;5.17;;;11.70;99.90;;;;;;5099004;28;20418;-44
2022/10/03 03:31:18;;;;;;;5.97;4.87;;;11.70;99.90;;;;;;5100191;28;20492;-44
2022/10/03 03:33:53;;;;;;;5.60;5.10;;;11.70;99.90;;;;;;5099211;28;20825;-45
2022/10/03 03:36:40;;;;;;;6.00;4.80;;;11.60;99.90;;;;;;5100739;28;20422;-46
2022/10/03 03:39:38;;;;;;;5.80;5.20;;;11.60;99.90;;;;;;5099648;28;20856;-45
2022/10/03 03:42:11;;;;;;;5.13;4.63;;;11.50;99.90;;;;;;5099780;28;20415;-43
2022/10/03 03:45:17;;;;;;;6.90;6.30;;;11.50;99.90;;;;;;5100424;28;20460;-51
2022/10/03 03:48:14;;;;;;;7.10;5.17;;;11.50;99.90;;;;;;5079051;28;20456;-43
2022/10/03 03:50:58;;;;;;;6.87;6.10;;;11.50;99.90;;;;;;5099237;28;20704;-48
2022/10/03 03:53:31;;;;;;;7.50;6.37;;;11.50;99.90;;;;;;5098181;28;20423;-46
2022/10/03 03:56:23;;;;;;;7.67;6.93;;;11.50;99.90;;;;;;5097630;28;20479;-44
2022/10/03 03:59:30;;;;;;;6.93;6.23;;;11.50;99.90;;;;;;5098686;28;20718;-43
2022/10/03 04:02:27;;;;;;;7.33;6.43;;;11.50;99.90;;;;;;5065934;28;20435;-45
2022/10/03 04:05:30;;;;;;;8.40;7.60;;;11.50;99.90;;;;;;5097916;28;20426;-44
2022/10/03 04:08:09;;;;;;;8.40;7.10;;;11.60;99.90;;;;;;5064882;28;20503;-46
2022/10/03 04:10:41;;;;;;;8.20;7.40;;;11.60;99.90;;;;;;5098702;28;20425;-45
2022/10/03 04:13:37;;;;;;;9.20;8.30;;;11.60;99.90;;;;;;5099155;28;20430;-44
2022/10/03 04:16:08;;;;;;;9.53;7.70;;;11.60;99.90;;;;;;5099681;28;20526;-45
2022/10/03 04:19:03;;;;;;;10.17;9.10;;;11.60;99.90;;;;;;5097948;28;20503;-49
2022/10/03 04:21:38;;;;;;;9.27;8.37;;;11.60;99.90;;;;;;5098987;28;20508;-43
2022/10/03 04:24:28;;;;;;;8.50;7.60;;;11.60;99.90;;;;;;5098640;28;20800;-45
2022/10/03 04:27:10;;;;;;;8.83;7.83;;;11.60;99.90;;;;;;5098108;28;20415;-44
2022/10/03 04:29:41;;;;;;;9.27;7.77;;;11.70;99.90;;;;;;5098581;28;20407;-44
2022/10/03 04:32:56;;;;;;;8.60;7.57;;;11.70;99.90;;;;;;5098533;28;20772;-50
2022/10/03 04:35:54;;;;;;;9.40;7.27;;;11.60;99.90;;;;;;5076415;28;20452;-43
2022/10/03 04:38:20;;;;;;;8.60;7.70;;;11.70;99.90;;;;;;5098056;28;20469;-44
2022/10/03 04:41:04;;;;;;;8.80;7.83;;;11.70;99.90;;;;;;5099284;28;20812;-46
2022/10/03 04:43:51;;;;;;;9.30;8.20;;;11.70;99.90;;;;;;5097025;28;20288;-43
2022/10/03 04:46:41;;;;;;;9.13;7.70;;;11.70;99.90;;;;;;5098543;28;20451;-43
2022/10/03 04:49:10;;;;;;;7.73;6.93;;;11.70;99.90;;;;;;5098289;28;20446;-43
2022/10/03 04:51:42;;;;;;;8.30;7.50;;;11.70;99.90;;;;;;5097941;28;20422;-44
2022/10/03 04:54:21;;;;;;;8.57;6.77;;;11.70;99.90;;;;;;5098792;28;20418;-46
2022/10/03 04:57:28;;;;;;;8.63;7.67;;;11.70;99.90;;;;;;5096065;28;20546;-43
2022/10/03 05:00:13;;;;;;;8.70;6.90;;;11.70;99.90;;;;;;5086460;28;20924;-53
2022/10/03 05:03:21;;;;;;;7.40;6.70;;;11.70;99.90;;;;;;5095417;28;20908;-44
2022/10/03 05:05:50;;;;;;;8.33;7.30;;;11.70;99.90;;;;;;5095478;28;20713;-44
2022/10/03 05:08:34;;;;;;;10.73;8.10;;;11.70;99.90;;;;;;5096107;28;20460;-45
2022/10/03 05:11:24;;;;;;;9.10;7.40;;;11.70;99.90;;;;;;5095634;28;20415;-47
2022/10/03 05:14:16;;;;;;;8.67;7.53;;;11.60;99.90;;;;;;5096814;28;20912;-44
2022/10/03 05:16:46;;;;;;;8.80;7.27;;;11.60;99.90;;;;;;5074286;28;20431;-43
2022/10/03 05:19:45;;;;;;;8.00;6.90;;;11.50;99.90;;;;;;5096430;28;20458;-46
2022/10/03 05:22:25;;;;;;;9.43;7.77;;;11.50;99.90;;;;;;5073621;28;20438;-43
2022/10/03 05:25:12;;;;;;;9.57;7.33;;;11.50;99.90;;;;;;5097424;28;20447;-44
2022/10/03 05:28:00;;;;;;;10.10;7.43;;;11.40;99.90;;;;;;5096107;28;20484;-45
2022/10/03 05:30:52;;;;;;;10.93;8.47;;;11.40;99.90;;;;;;5096934;28;20410;-45
2022/10/03 05:33:41;;;;;;;10.93;7.77;;;11.40;99.90;;;;;;5096399;28;20432;-48
2022/10/03 05:36:37;;;;;;;8.67;6.80;;;11.40;99.90;;;;;;5095928;28;20835;-45
2022/10/03 05:39:30;;;;;;;9.57;7.97;;;11.40;99.90;;;;;;5094726;28;20470;-48
2022/10/03 05:42:17;;;;;;;11.30;10.20;;;11.50;99.90;;;;;;5093470;28;20419;-44
2022/10/03 05:45:07;;;;;;;12.50;11.30;;;11.40;99.90;;;;;;5094737;28;20761;-43
2022/10/03 05:47:45;;;;;;;11.90;10.80;;;11.50;99.90;;;;;;5094208;28;20847;-44
2022/10/03 05:50:26;;;;;;;11.70;10.70;;;11.50;99.90;;;;;;5094809;28;20426;-42
2022/10/03 05:53:00;;;;;;;12.43;10.43;;;11.50;99.90;;;;;;5094430;28;20429;-43
2022/10/03 05:55:36;;;;;;;12.23;10.40;;;11.50;99.90;;;;;;5097470;28;20445;-43
2022/10/03 05:58:21;;;;;;;10.57;9.53;;;11.50;99.90;;;;;;5097282;28;20883;-43
2022/10/03 06:01:05;;;;;;;12.77;11.40;;;11.50;99.90;;;;;;5094645;28;20475;-44
2022/10/03 06:04:04;;;;;;;11.73;10.63;;;11.50;99.90;;;;;;5095995;28;20437;-45
2022/10/03 06:07:25;;;;;;;9.03;8.13;;;11.50;99.90;;;;;;5096132;28;20764;-45
2022/10/03 06:10:17;;;;;;;7.90;7.10;;;11.50;99.90;;;;;;5071005;28;20540;-45
2022/10/03 06:13:10;;;;;;;7.03;6.33;;;11.50;99.90;;;;;;5095772;28;20411;-45
2022/10/03 06:15:57;;;;;;;7.33;6.67;;;11.50;99.90;;;;;;5096656;28;20422;-44
2022/10/03 06:18:56;;;;;;;6.63;5.97;;;11.50;99.90;;;;;;5097049;28;20474;-44
2022/10/03 06:21:42;;;;;;;6.73;6.03;;;11.60;99.90;;;;;;5095512;28;20415;-45
2022/10/03 06:24:45;;;;;;;8.43;6.40;;;11.60;99.90;;;;;;5094689;28;20541;-43
2022/10/03 06:27:37;;;;;;;5.97;5.47;;;11.70;99.90;;;;;;5097378;28;20418;-42
2022/10/03 06:30:20;;;;;;;7.07;6.30;;;11.70;99.90;;;;;;5100748;28;20465;-43
2022/10/03 06:32:58;;;;;;;7.50;6.80;;;11.80;99.90;;;;;;5098739;28;20832;-44
2022/10/03 06:35:48;;;;;;;9.00;8.13;;;11.90;99.90;;;;;;5100163;28;20669;-46
2022/10/03 06:38:25;;;;;;;8.27;7.50;;;11.90;99.90;;;;;;5100312;28;20559;-47
2022/10/03 06:41:20;;;;;;;8.33;7.30;;;12.00;99.90;;;;;;5099963;28;20692;-47
2022/10/03 06:44:20;;;;;;;8.33;7.40;;;12.20;99.90;;;;;;5100950;28;20426;-47
2022/10/03 06:46:53;;;;;;;8.90;7.40;;;12.40;99.90;;;;;;5100404;28;20654;-45
2022/10/03 06:49:33;;;;;;;7.80;7.00;;;12.60;99.90;;;;;;5099223;28;20524;-46
2022/10/03 06:52:07;;;;;;;8.57;7.67;;;12.90;99.90;;;;;;5098607;28;20503;-45
2022/10/03 06:55:10;;;;;;;9.43;7.30;;;13.40;99.90;;;;;;5097785;28;20428;-44
2022/10/03 06:58:00;;;;;;;8.97;7.50;;;13.70;99.90;;;;;;5098184;28;20996;-46
2022/10/03 07:00:48;;;;;;;8.00;7.30;;;14.00;99.90;;;;;;5096467;28;20423;-46
2022/10/03 07:03:41;;;;;;;8.43;7.60;;;14.10;99.90;;;;;;5097319;28;20520;-44
2022/10/03 07:06:32;;;;;;;8.93;7.97;;;14.20;99.90;;;;;;5099446;28;20438;-45
2022/10/03 07:09:19;;;;;;;9.03;7.97;;;14.20;99.80;;;;;;5097933;28;20419;-47
2022/10/03 07:12:21;;;;;;;10.30;7.73;;;14.20;99.70;;;;;;5099127;28;20520;-47
2022/10/03 07:15:10;;;;;;;12.50;8.23;;;14.10;99.60;;;;;;5098403;28;20415;-43
2022/10/03 07:17:42;;;;;;;11.40;8.80;;;14.00;99.80;;;;;;5098118;28;20556;-43
2022/10/03 07:20:31;;;;;;;9.20;8.20;;;14.00;99.90;;;;;;5098392;28;20584;-45
2022/10/03 07:23:18;;;;;;;10.80;8.30;;;14.00;99.90;;;;;;5098288;28;20435;-48
2022/10/03 07:25:58;;;;;;;11.10;7.87;;;14.00;99.90;;;;;;5097382;28;20793;-44
2022/10/03 07:29:02;;;;;;;9.80;7.23;;;13.90;99.90;;;;;;5096839;28;20425;-45
2022/10/03 07:31:42;;;;;;;10.63;8.30;;;14.00;99.90;;;;;;5097863;28;20712;-44
2022/10/03 07:34:37;;;;;;;10.07;8.07;;;14.00;99.90;;;;;;5095364;28;20447;-43
2022/10/03 07:40:14;;;;;;;8.97;8.10;;;14.10;99.70;;;;;;5096809;28;20405;-47
2022/10/03 07:42:51;;;;;;;11.73;8.87;;;14.10;99.60;;;;;;5097003;28;20431;-46
2022/10/03 07:45:33;;;;;;;10.20;8.67;;;14.10;99.40;;;;;;5097613;28;20787;-44
2022/10/03 07:48:17;;;;;;;11.33;9.97;;;14.10;99.20;;;;;;5096832;28;20534;-44
2022/10/03 07:50:54;;;;;;;10.87;9.23;;;14.10;99.10;;;;;;5096744;28;20417;-46
2022/10/03 07:53:31;;;;;;;11.77;9.40;;;14.20;99.20;;;;;;5094637;28;20440;-45
2022/10/03 07:56:25;;;;;;;10.77;9.77;;;14.20;99.30;;;;;;5096236;28;20454;-43
2022/10/03 07:59:08;;;;;;;10.97;9.87;;;14.20;99.20;;;;;;5094442;28;20873;-46
2022/10/03 08:01:34;;;;;;;11.23;9.40;;;14.30;99.10;;;;;;5096975;28;20404;-47
2022/10/03 08:04:44;;;;;;;9.80;8.57;;;14.30;99.10;;;;;;5095870;28;20433;-45
2022/10/03 08:07:36;;;;;;;11.07;9.83;;;14.40;99.00;;;;;;5096423;28;20177;-48
2022/10/03 08:10:29;;;;;;;10.67;9.23;;;14.40;98.70;;;;;;5093775;28;20404;-47
2022/10/03 08:13:20;;;;;;;12.40;10.00;;;14.40;98.60;;;;;;5092924;28;20753;-44
2022/10/03 08:16:16;;;;;;;10.90;9.80;;;14.40;98.60;;;;;;5095144;28;20563;-45
2022/10/03 08:18:55;;;;;;;10.40;9.40;;;14.40;98.50;;;;;;5096367;28;20763;-44
2022/10/03 08:21:55;;;;;;;11.57;10.10;;;14.40;98.50;;;;;;5097173;28;20704;-45
2022/10/03 08:24:47;;;;;;;12.00;9.50;;;14.40;98.50;;;;;;5095329;28;20439;-46
2022/10/03 08:27:30;;;;;;;12.37;9.90;;;14.40;98.40;;;;;;5077674;28;20445;-48
2022/10/03 08:30:33;;;;;;;12.37;11.17;;;14.40;98.50;;;;;;5094431;28;20515;-45
2022/10/03 08:33:20;;;;;;;9.80;8.90;;;14.40;98.50;;;;;;5093965;28;20981;-46
2022/10/03 08:36:07;;;;;;;11.13;9.53;;;14.50;98.50;;;;;;5095573;28;20424;-45
2022/10/03 08:39:00;;;;;;;10.70;9.63;;;14.60;98.40;;;;;;5094779;28;20563;-45
2022/10/03 08:41:49;;;;;;;11.83;10.10;;;14.70;98.10;;;;;;5095835;28;20793;-45
2022/10/03 08:45:14;;;;;;;11.63;9.27;;;14.80;97.90;;;;;;5094144;28;20415;-46
2022/10/03 08:47:51;;;;;;;13.70;10.03;;;15.00;97.60;;;;;;5045017;28;20429;-45
2022/10/03 08:50:35;;;;;;;13.50;10.10;;;15.20;97.20;;;;;;5094418;28;20424;-48
2022/10/03 08:53:41;;;;;;;9.63;8.63;;;15.40;97.00;;;;;;5092992;28;20415;-47
2022/10/03 08:56:48;;;;;;;9.90;8.50;;;15.50;96.80;;;;;;5096477;28;20463;-46
2022/10/03 08:59:54;;;;;;;10.33;9.13;;;15.70;96.60;;;;;;5077585;28;20573;-44
2022/10/03 09:02:44;;;;;;;9.00;8.10;;;15.80;96.40;;;;;;5095946;28;20514;-45
2022/10/03 09:05:28;;;;;;;11.53;7.90;;;16.00;96.40;;;;;;5086176;28;20437;-47
2022/10/03 09:08:19;;;;;;;9.27;7.70;;;16.10;96.30;;;;;;5095121;28;20411;-44
2022/10/03 09:10:50;;;;;;;10.53;7.60;;;16.20;96.10;;;;;;5083199;28;20513;-44
2022/10/03 09:13:38;;;;;;;10.57;7.70;;;16.30;95.90;;;;;;5096120;28;20412;-45
2022/10/03 09:16:27;;;;;;;7.90;7.10;;;16.40;95.60;;;;;;5095972;28;20438;-45
2022/10/03 09:19:18;;;;;;;13.90;8.43;;;16.50;95.20;;;;;;5076180;28;20467;-43
2022/10/03 09:22:11;;;;;;;11.57;9.13;;;16.70;94.90;;;;;;5085117;28;20436;-43
2022/10/03 09:24:58;;;;;;;9.40;8.40;;;17.00;94.10;;;;;;5086854;28;20795;-44
2022/10/03 09:28:22;;;;;;;7.93;7.13;;;17.50;93.60;;;;;;5093269;28;20500;-43
2022/10/03 09:31:21;;;;;;;8.90;7.20;;;18.40;93.00;;;;;;5074942;28;20894;-46
2022/10/03 09:33:47;;;;;;;8.70;6.97;;;19.70;91.00;;;;;;5074035;28;20431;-46
2022/10/03 09:36:40;;;;;;;8.20;6.63;;;20.50;87.90;;;;;;5074372;28;20517;-46
2022/10/03 09:39:33;;;;;;;12.83;7.40;;;21.70;84.10;;;;;;5082244;28;20259;-45
2022/10/03 09:42:20;;;;;;;10.47;6.90;;;22.60;79.20;;;;;;5075300;28;20450;-45
2022/10/03 09:45:20;;;;;;;7.47;6.70;;;23.20;75.40;;;;;;5079299;28;20408;-47
2022/10/03 09:48:08;;;;;;;9.50;6.70;;;23.40;72.80;;;;;;5095542;28;20442;-45
2022/10/03 09:50:43;;;;;;;6.93;6.27;;;23.30;70.60;;;;;;5095277;28;20406;-45
2022/10/03 09:53:37;;;;;;;6.83;5.83;;;23.40;70.00;;;;;;5093412;28;20914;-46
2022/10/03 09:56:11;;;;;;;7.83;6.30;;;24.20;68.20;;;;;;5092940;28;20464;-45
2022/10/03 09:58:40;;;;;;;5.93;5.43;;;24.50;65.00;;;;;;5092958;28;20897;-45
2022/10/03 10:01:50;;;;;;;7.80;6.20;;;24.70;63.30;;;;;;5095075;28;20416;-47
2022/10/03 10:04:37;;;;;;;6.80;6.17;;;25.00;61.90;;;;;;5096098;28;20418;-45
2022/10/03 10:07:14;;;;;;;8.03;6.60;;;25.30;59.40;;;;;;5097675;28;20823;-45
2022/10/03 10:09:59;;;;;;;7.20;6.50;;;25.70;58.50;;;;;;5093065;28;20846;-43
2022/10/03 10:12:43;;;;;;;7.87;6.47;;;25.90;57.20;;;;;;5077536;28;20547;-47
2022/10/03 10:15:36;;;;;;;6.60;6.00;;;26.60;56.30;;;;;;5079231;28;20413;-47
2022/10/03 10:18:26;;;;;;;5.83;5.20;;;28.60;53.70;;;;;;5078301;28;20488;-46
2022/10/03 10:21:23;;;;;;;6.80;5.13;;;30.80;50.30;;;;;;5076958;28;20490;-47
2022/10/03 10:24:17;;;;;;;6.67;6.07;;;33.00;46.40;;;;;;5075814;28;20485;-46
2022/10/03 10:27:06;;;;;;;6.50;5.70;;;35.50;42.00;;;;;;5077587;28;20439;-46
2022/10/03 10:29:59;;;;;;;7.93;4.90;;;36.50;38.80;;;;;;5078011;28;20420;-47
2022/10/03 10:33:05;;;;;;;6.20;5.60;;;37.20;36.90;;;;;;5077674;28;20381;-48
2022/10/03 10:35:45;;;;;;;6.43;4.77;;;37.80;36.40;;;;;;5077725;28;20428;-45
2022/10/03 10:38:29;;;;;;;5.63;5.03;;;38.10;34.20;;;;;;5083935;28;20547;-46
2022/10/03 10:41:14;;;;;;;5.17;4.40;;;37.40;34.20;;;;;;5097667;28;20427;-46
2022/10/03 10:44:02;;;;;;;6.50;5.37;;;36.80;34.00;;;;;;5099443;28;20403;-45
2022/10/03 10:46:59;;;;;;;5.33;4.83;;;36.10;34.30;;;;;;5099097;28;20846;-44
2022/10/03 10:49:56;;;;;;;6.03;4.40;;;36.10;34.50;;;;;;5096126;28;20573;-46
2022/10/03 10:52:54;;;;;;;5.43;4.63;;;34.90;34.90;;;;;;5097070;28;20511;-45
2022/10/03 10:55:54;;;;;;;6.33;4.77;;;33.60;35.30;;;;;;5097373;28;20832;-45
2022/10/03 10:58:56;;;;;;;4.53;4.03;;;32.50;36.30;;;;;;5097256;28;20414;-47
2022/10/03 11:01:34;;;;;;;3.13;2.30;;;31.50;38.50;;;;;;5095128;28;20388;-46
2022/10/03 11:04:12;;;;;;;2.80;2.50;;;30.80;40.70;;;;;;5095476;28;20517;-47
2022/10/03 11:07:02;;;;;;;3.10;2.53;;;30.10;41.50;;;;;;5096321;28;20440;-45
2022/10/03 11:10:00;;;;;;;3.90;2.93;;;29.40;42.50;;;;;;5097142;28;20470;-46
2022/10/03 11:12:44;;;;;;;4.60;3.30;;;28.50;43.80;;;;;;5089098;28;20423;-48
2022/10/03 11:15:37;;;;;;;4.53;3.73;;;27.90;44.80;;;;;;5095347;28;20464;-45
2022/10/03 11:18:24;;;;;;;9.10;3.20;;;27.30;45.40;;;;;;5095109;28;20418;-46
2022/10/03 11:21:20;;;;;;;3.53;3.10;;;26.90;46.30;;;;;;5096414;28;20663;-45
2022/10/03 11:24:08;;;;;;;7.87;3.73;;;26.50;47.00;;;;;;5096107;28;20778;-46
2022/10/03 11:26:58;;;;;;;6.97;3.80;;;26.20;47.50;;;;;;5096704;28;20437;-46
2022/10/03 11:29:42;;;;;;;8.60;5.13;;;25.90;48.40;;;;;;5095327;28;20911;-46
2022/10/03 11:32:23;;;;;;;6.20;4.00;;;25.60;48.60;;;;;;5096277;28;20850;-46
2022/10/03 11:34:51;;;;;;;4.63;4.07;;;25.30;48.80;;;;;;5096962;28;20498;-46
2022/10/03 11:37:41;;;;;;;4.73;4.30;;;24.90;49.00;;;;;;5096216;28;20431;-49
2022/10/03 11:40:23;;;;;;;5.87;4.13;;;24.60;49.80;;;;;;5078090;28;20600;-46
2022/10/03 11:43:22;;;;;;;5.47;4.03;;;24.20;50.00;;;;;;5095748;28;20768;-48
2022/10/03 11:46:11;;;;;;;5.80;4.93;;;23.80;50.50;;;;;;5096665;28;20409;-47
2022/10/03 11:48:40;;;;;;;5.20;4.80;;;23.50;51.20;;;;;;5095593;28;20503;-44
2022/10/03 11:51:35;;;;;;;7.23;5.23;;;23.20;51.80;;;;;;5096385;28;20474;-45
2022/10/03 11:54:17;;;;;;;4.93;4.50;;;23.00;52.60;;;;;;5095786;28;20433;-46
2022/10/03 11:56:50;;;;;;;6.43;5.30;;;22.80;53.50;;;;;;5094449;28;20783;-48
2022/10/03 11:59:37;;;;;;;5.60;4.50;;;22.70;54.20;;;;;;5096245;28;20423;-45
2022/10/03 12:02:16;;;;;;;5.97;4.27;;;22.60;54.60;;;;;;5096484;28;20459;-44
2022/10/03 12:05:11;;;;;;;6.80;5.00;;;22.60;54.90;;;;;;5095206;28;20417;-48
2022/10/03 12:11:22;;;;;;;9.57;5.77;;;22.80;55.70;;;;;;5095858;28;20463;-46
2022/10/03 12:14:14;;;;;;;6.93;5.10;;;23.10;56.10;;;;;;5076822;28;20814;-46
2022/10/03 12:16:59;;;;;;;4.60;4.10;;;23.70;56.30;;;;;;5095028;28;20445;-46
2022/10/03 12:19:52;;;;;;;5.50;4.80;;;25.60;57.30;;;;;;5097912;28;20428;-46
2022/10/03 12:22:40;;;;;;;5.10;4.60;;;27.00;54.20;;;;;;5094551;28;20505;-46
2022/10/03 12:25:16;;;;;;;5.03;4.30;;;27.30;53.10;;;;;;5094401;28;20800;-46
2022/10/03 12:27:41;;;;;;;6.83;5.40;;;27.10;52.50;;;;;;5094483;28;20453;-48
2022/10/03 12:30:16;;;;;;;6.43;5.20;;;26.80;52.40;;;;;;5093298;28;20433;-47
2022/10/03 12:33:03;;;;;;;7.30;6.10;;;26.60;52.10;;;;;;5092797;28;20465;-47
2022/10/03 12:35:51;;;;;;;6.60;5.70;;;26.50;51.70;;;;;;5093669;28;20527;-47
2022/10/03 12:38:32;;;;;;;8.53;6.60;;;26.00;51.80;;;;;;5090938;28;20528;-48
2022/10/03 12:41:20;;;;;;;16.30;9.17;;;25.60;51.70;;;;;;5093097;28;20439;-45
2022/10/03 12:44:18;;;;;;;11.07;8.63;;;25.20;52.70;;;;;;5094772;28;20464;-47
2022/10/03 12:46:58;;;;;;;8.93;6.60;;;24.90;53.10;;;;;;5092741;28;20447;-49
2022/10/03 12:49:38;;;;;;;13.53;6.80;;;24.60;53.70;;;;;;5093382;28;20644;-48
2022/10/03 12:52:14;;;;;;;8.20;7.20;;;24.50;53.90;;;;;;5092423;28;20462;-47
2022/10/03 12:54:47;;;;;;;10.13;7.20;;;24.40;53.90;;;;;;5076292;28;20842;-47
2022/10/03 12:57:19;;;;;;;7.23;5.40;;;24.70;54.30;;;;;;5093074;28;20547;-45
2022/10/03 13:00:19;;;;;;;5.33;4.83;;;24.90;53.20;;;;;;5093806;28;20700;-46
2022/10/03 13:03:01;;;;;;;5.63;5.13;;;25.30;53.10;;;;;;5089396;28;20425;-48
2022/10/03 13:05:39;;;;;;;6.10;5.10;;;25.70;52.50;;;;;;5092519;28;20861;-46
2022/10/03 13:08:27;;;;;;;5.30;4.90;;;26.10;51.90;;;;;;5093352;28;20541;-46
2022/10/03 13:11:02;;;;;;;5.63;5.13;;;26.40;51.30;;;;;;5093591;28;20837;-45
2022/10/03 13:13:43;;;;;;;5.60;4.77;;;26.70;51.00;;;;;;5091049;28;20719;-44
2022/10/03 13:16:18;;;;;;;8.57;4.73;;;27.00;50.90;;;;;;5091678;28;20443;-48
2022/10/03 13:19:12;;;;;;;6.87;5.53;;;27.20;50.80;;;;;;5094139;28;20415;-49
2022/10/03 13:21:53;;;;;;;4.63;4.20;;;27.40;50.30;;;;;;5076776;28;20486;-51
2022/10/03 13:24:56;;;;;;;5.60;4.70;;;28.00;49.50;;;;;;5095073;28;20418;-49
2022/10/03 13:27:25;;;;;;;8.20;4.60;;;28.20;48.60;;;;;;5095311;28;20841;-46
2022/10/03 13:30:04;;;;;;;6.60;4.57;;;28.80;47.80;;;;;;5092728;28;21043;-47
2022/10/03 13:32:38;;;;;;;4.33;3.93;;;29.10;46.70;;;;;;5089639;28;21402;-50
2022/10/03 13:38:18;;;;;;;5.00;4.30;;;28.90;46.20;;;;;;5093524;28;20428;-45
2022/10/03 13:40:53;;;;;;;3.90;3.60;;;28.60;46.40;;;;;;5096388;28;20380;-48
2022/10/03 13:43:24;;;;;;;4.67;4.17;;;28.30;45.70;;;;;;5096669;28;20443;-48
2022/10/03 13:45:55;;;;;;;5.57;4.47;;;28.20;45.90;;;;;;5081915;28;20430;-47
2022/10/03 13:48:25;;;;;;;4.60;4.20;;;28.40;46.20;;;;;;5098564;28;20481;-47
2022/10/03 13:51:10;;;;;;;6.40;4.10;;;28.90;46.00;;;;;;5095685;28;20410;-46
2022/10/03 13:53:58;;;;;;;4.33;3.57;;;30.50;45.10;;;;;;5098425;28;20432;-46
2022/10/03 13:56:44;;;;;;;4.50;4.07;;;32.70;43.00;;;;;;5096830;28;20452;-47
2022/10/03 13:59:26;;;;;;;4.10;3.63;;;34.90;40.20;;;;;;5094620;28;20492;-48
2022/10/03 14:02:04;;;;;;;4.20;3.80;;;36.80;37.70;;;;;;5095019;28;20475;-49
2022/10/03 14:04:41;;;;;;;3.70;3.40;;;38.30;35.80;;;;;;5093633;28;20483;-48
2022/10/03 14:07:15;;;;;;;4.13;3.73;;;39.50;34.40;;;;;;5096849;28;20422;-48
2022/10/03 14:10:03;;;;;;;4.03;3.63;;;40.20;32.90;;;;;;5095281;28;20420;-45
2022/10/03 14:12:43;;;;;;;3.67;3.37;;;39.40;32.70;;;;;;5099244;28;20875;-46
2022/10/03 14:15:18;;;;;;;4.43;4.03;;;37.90;33.30;;;;;;5096845;28;20834;-45
2022/10/03 14:17:49;;;;;;;4.00;3.70;;;36.00;34.80;;;;;;5092325;28;20426;-48
2022/10/03 14:20:24;;;;;;;3.60;3.30;;;34.50;36.20;;;;;;5094940;28;20457;-46
2022/10/03 14:22:52;;;;;;;3.23;2.90;;;33.10;37.40;;;;;;5092547;28;20404;-45
2022/10/03 14:25:29;;;;;;;4.53;3.30;;;31.90;38.40;;;;;;5096464;28;20442;-47
2022/10/03 14:28:06;;;;;;;3.90;3.27;;;31.00;39.50;;;;;;5075421;28;20465;-50
2022/10/03 14:30:44;;;;;;;4.93;3.50;;;30.30;40.40;;;;;;5078371;28;20795;-44
2022/10/03 14:33:22;;;;;;;3.90;3.40;;;29.80;41.10;;;;;;5078157;28;20399;-48
2022/10/03 14:36:07;;;;;;;3.67;3.10;;;30.40;41.00;;;;;;5087389;28;20700;-47